sensor_id;sensor_type;location;lat;lon;timestamp;temperature;humidity
38464;DHT22;24243;51.956;5.902;2024-01-15T00:02:18;18.90;55.00
38464;DHT22;24243;51.956;5.902;2024-01-15T00:04:43;18.90;55.00
38464;DHT22;24243;51.956;5.902;2024-01-15T00:07:09;18.90;55.00
38464;DHT22;24243;51.956;5.902;2024-01-15T00:09:35;18.90;55.00
38464;DHT22;24243;51.956;5.902;2024-01-15T00:12:01;18.90;55.00
38464;DHT22;24243;51.956;5.902;2024-01-15T00:14:27;18.90;55.00
38464;DHT22;24243;51.956;5.902;2024-01-15T00:16:53;18.80;55.00
38464;DHT22;24243;51.956;5.902;2024-01-15T00:19:21;18.80;55.00
38464;DHT22;24243;51.956;5.902;2024-01-15T00:21:47;18.80;55.00
38464;DHT22;24243;51.956;5.902;2024-01-15T00:24:12;18.80;55.00
38464;DHT22;24243;51.956;5.902;2024-01-15T00:26:38;18.80;55.00
38464;DHT22;24243;51.956;5.902;2024-01-15T00:29:03;18.80;55.00
38464;DHT22;24243;51.956;5.902;2024-01-15T00:31:29;18.80;55.00
38464;DHT22;24243;51.956;5.902;2024-01-15T00:33:55;18.80;54.90
38464;DHT22;24243;51.956;5.902;2024-01-15T00:36:21;18.80;55.00
38464;DHT22;24243;51.956;5.902;2024-01-15T00:38:47;18.80;55.00
38464;DHT22;24243;51.956;5.902;2024-01-15T00:41:13;18.80;55.00
38464;DHT22;24243;51.956;5.902;2024-01-15T00:43:38;18.70;54.90
38464;DHT22;24243;51.956;5.902;2024-01-15T00:46:04;18.70;54.90
38464;DHT22;24243;51.956;5.902;2024-01-15T00:48:30;18.70;54.90
38464;DHT22;24243;51.956;5.902;2024-01-15T00:50:56;18.70;54.90
38464;DHT22;24243;51.956;5.902;2024-01-15T00:53:21;18.70;54.90
38464;DHT22;24243;51.956;5.902;2024-01-15T00:55:50;18.70;54.90
38464;DHT22;24243;51.956;5.902;2024-01-15T00:58:16;18.70;54.90
38464;DHT22;24243;51.956;5.902;2024-01-15T01:00:41;18.70;54.90
38464;DHT22;24243;51.956;5.902;2024-01-15T01:03:07;18.70;54.90
38464;DHT22;24243;51.956;5.902;2024-01-15T01:05:33;18.70;54.80
38464;DHT22;24243;51.956;5.902;2024-01-15T01:07:59;18.70;54.80
38464;DHT22;24243;51.956;5.902;2024-01-15T01:10:25;18.60;54.80
38464;DHT22;24243;51.956;5.902;2024-01-15T01:12:50;18.60;54.80
38464;DHT22;24243;51.956;5.902;2024-01-15T01:15:16;18.70;54.80
38464;DHT22;24243;51.956;5.902;2024-01-15T01:17:42;18.60;54.70
38464;DHT22;24243;51.956;5.902;2024-01-15T01:20:07;18.60;54.70
38464;DHT22;24243;51.956;5.902;2024-01-15T01:22:34;18.60;54.70
38464;DHT22;24243;51.956;5.902;2024-01-15T01:25:00;18.60;54.70
38464;DHT22;24243;51.956;5.902;2024-01-15T01:27:26;18.60;54.70
38464;DHT22;24243;51.956;5.902;2024-01-15T01:29:51;18.60;55.30
38464;DHT22;24243;51.956;5.902;2024-01-15T01:32:18;18.60;54.70
38464;DHT22;24243;51.956;5.902;2024-01-15T01:34:43;18.60;54.70
38464;DHT22;24243;51.956;5.902;2024-01-15T01:37:09;18.60;54.70
38464;DHT22;24243;51.956;5.902;2024-01-15T01:39:38;18.50;54.60
38464;DHT22;24243;51.956;5.902;2024-01-15T01:42:03;18.50;54.60
38464;DHT22;24243;51.956;5.902;2024-01-15T01:44:29;18.50;54.60
38464;DHT22;24243;51.956;5.902;2024-01-15T01:46:55;18.50;55.20
38464;DHT22;24243;51.956;5.902;2024-01-15T01:49:22;18.50;54.60
38464;DHT22;24243;51.956;5.902;2024-01-15T01:51:48;18.50;54.60
38464;DHT22;24243;51.956;5.902;2024-01-15T01:54:14;18.50;54.60
38464;DHT22;24243;51.956;5.902;2024-01-15T01:56:43;18.50;54.60
38464;DHT22;24243;51.956;5.902;2024-01-15T01:59:09;18.50;54.60
38464;DHT22;24243;51.956;5.902;2024-01-15T02:01:35;18.50;54.60
38464;DHT22;24243;51.956;5.902;2024-01-15T02:04:01;18.50;54.60
38464;DHT22;24243;51.956;5.902;2024-01-15T02:06:26;18.50;54.60
38464;DHT22;24243;51.956;5.902;2024-01-15T02:08:52;18.50;54.50
38464;DHT22;24243;51.956;5.902;2024-01-15T02:11:18;18.50;54.50
38464;DHT22;24243;51.956;5.902;2024-01-15T02:13:44;18.40;54.50
38464;DHT22;24243;51.956;5.902;2024-01-15T02:16:09;18.40;54.50
38464;DHT22;24243;51.956;5.902;2024-01-15T02:18:41;18.50;54.60
38464;DHT22;24243;51.956;5.902;2024-01-15T02:21:08;18.40;54.50
38464;DHT22;24243;51.956;5.902;2024-01-15T02:23:33;18.40;54.50
38464;DHT22;24243;51.956;5.902;2024-01-15T02:25:59;18.40;54.50
38464;DHT22;24243;51.956;5.902;2024-01-15T02:28:24;18.40;54.50
38464;DHT22;24243;51.956;5.902;2024-01-15T02:30:50;18.40;54.50
38464;DHT22;24243;51.956;5.902;2024-01-15T02:33:15;18.40;54.50
38464;DHT22;24243;51.956;5.902;2024-01-15T02:35:41;18.40;54.50
38464;DHT22;24243;51.956;5.902;2024-01-15T02:38:07;18.40;54.50
38464;DHT22;24243;51.956;5.902;2024-01-15T02:40:33;18.40;54.50
38464;DHT22;24243;51.956;5.902;2024-01-15T02:42:59;18.40;54.40
38464;DHT22;24243;51.956;5.902;2024-01-15T02:45:25;18.30;54.40
38464;DHT22;24243;51.956;5.902;2024-01-15T02:47:50;18.30;54.40
38464;DHT22;24243;51.956;5.902;2024-01-15T02:50:16;18.30;54.40
38464;DHT22;24243;51.956;5.902;2024-01-15T02:52:42;18.40;54.50
38464;DHT22;24243;51.956;5.902;2024-01-15T02:55:07;18.40;54.40
38464;DHT22;24243;51.956;5.902;2024-01-15T02:57:33;18.30;54.40
38464;DHT22;24243;51.956;5.902;2024-01-15T02:59:59;18.30;54.40
38464;DHT22;24243;51.956;5.902;2024-01-15T03:02:24;18.30;54.40
38464;DHT22;24243;51.956;5.902;2024-01-15T03:04:50;18.30;54.40
38464;DHT22;24243;51.956;5.902;2024-01-15T03:07:16;18.30;54.40
38464;DHT22;24243;51.956;5.902;2024-01-15T03:09:41;18.30;54.40
38464;DHT22;24243;51.956;5.902;2024-01-15T03:12:07;18.30;54.40
38464;DHT22;24243;51.956;5.902;2024-01-15T03:14:33;18.30;54.40
38464;DHT22;24243;51.956;5.902;2024-01-15T03:16:58;18.30;54.30
38464;DHT22;24243;51.956;5.902;2024-01-15T03:19:25;18.30;54.30
38464;DHT22;24243;51.956;5.902;2024-01-15T03:21:50;18.30;54.30
38464;DHT22;24243;51.956;5.902;2024-01-15T03:24:16;18.30;54.30
38464;DHT22;24243;51.956;5.902;2024-01-15T03:26:41;18.30;54.30
38464;DHT22;24243;51.956;5.902;2024-01-15T03:29:07;18.20;54.30
38464;DHT22;24243;51.956;5.902;2024-01-15T03:31:33;18.20;54.30
38464;DHT22;24243;51.956;5.902;2024-01-15T03:33:58;18.30;54.30
38464;DHT22;24243;51.956;5.902;2024-01-15T03:36:24;18.30;54.30
38464;DHT22;24243;51.956;5.902;2024-01-15T03:38:49;18.20;54.20
38464;DHT22;24243;51.956;5.902;2024-01-15T03:41:15;18.20;54.20
38464;DHT22;24243;51.956;5.902;2024-01-15T03:43:41;18.20;54.20
38464;DHT22;24243;51.956;5.902;2024-01-15T03:46:06;18.20;54.20
38464;DHT22;24243;51.956;5.902;2024-01-15T03:48:32;18.20;54.30
38464;DHT22;24243;51.956;5.902;2024-01-15T03:50:58;18.20;54.20
38464;DHT22;24243;51.956;5.902;2024-01-15T03:53:23;18.20;54.20
38464;DHT22;24243;51.956;5.902;2024-01-15T03:55:49;18.20;54.20
38464;DHT22;24243;51.956;5.902;2024-01-15T03:58:15;18.20;54.20
38464;DHT22;24243;51.956;5.902;2024-01-15T04:00:41;18.20;54.20
38464;DHT22;24243;51.956;5.902;2024-01-15T04:03:06;18.20;54.20
38464;DHT22;24243;51.956;5.902;2024-01-15T04:05:32;18.20;54.20
38464;DHT22;24243;51.956;5.902;2024-01-15T04:07:58;18.20;54.20
38464;DHT22;24243;51.956;5.902;2024-01-15T04:10:23;18.20;54.20
38464;DHT22;24243;51.956;5.902;2024-01-15T04:12:49;18.20;54.20
38464;DHT22;24243;51.956;5.902;2024-01-15T04:15:15;18.10;54.10
38464;DHT22;24243;51.956;5.902;2024-01-15T04:17:40;18.10;54.10
38464;DHT22;24243;51.956;5.902;2024-01-15T04:20:06;18.20;54.20
38464;DHT22;24243;51.956;5.902;2024-01-15T04:22:32;18.10;54.10
38464;DHT22;24243;51.956;5.902;2024-01-15T04:24:58;18.10;54.10
38464;DHT22;24243;51.956;5.902;2024-01-15T04:27:24;18.20;54.20
38464;DHT22;24243;51.956;5.902;2024-01-15T04:29:49;18.10;54.10
38464;DHT22;24243;51.956;5.902;2024-01-15T04:32:15;18.10;54.10
38464;DHT22;24243;51.956;5.902;2024-01-15T04:34:41;18.10;54.10
38464;DHT22;24243;51.956;5.902;2024-01-15T04:37:06;18.10;54.10
38464;DHT22;24243;51.956;5.902;2024-01-15T04:39:32;18.10;54.10
38464;DHT22;24243;51.956;5.902;2024-01-15T04:41:58;18.10;54.10
38464;DHT22;24243;51.956;5.902;2024-01-15T04:44:23;18.10;54.10
38464;DHT22;24243;51.956;5.902;2024-01-15T04:46:49;18.10;54.10
38464;DHT22;24243;51.956;5.902;2024-01-15T04:49:14;18.10;54.10
38464;DHT22;24243;51.956;5.902;2024-01-15T04:51:40;18.10;54.10
38464;DHT22;24243;51.956;5.902;2024-01-15T04:54:06;18.10;54.10
38464;DHT22;24243;51.956;5.902;2024-01-15T04:56:31;18.10;54.10
38464;DHT22;24243;51.956;5.902;2024-01-15T04:58:57;18.10;54.10
38464;DHT22;24243;51.956;5.902;2024-01-15T05:01:22;18.10;54.10
38464;DHT22;24243;51.956;5.902;2024-01-15T05:03:48;18.00;54.00
38464;DHT22;24243;51.956;5.902;2024-01-15T05:06:14;18.00;54.10
38464;DHT22;24243;51.956;5.902;2024-01-15T05:08:40;18.00;54.10
38464;DHT22;24243;51.956;5.902;2024-01-15T05:11:06;18.00;54.10
38464;DHT22;24243;51.956;5.902;2024-01-15T05:13:31;18.00;54.00
38464;DHT22;24243;51.956;5.902;2024-01-15T05:15:57;18.00;54.00
38464;DHT22;24243;51.956;5.902;2024-01-15T05:18:22;18.00;54.00
38464;DHT22;24243;51.956;5.902;2024-01-15T05:20:48;18.00;54.00
38464;DHT22;24243;51.956;5.902;2024-01-15T05:23:13;18.00;54.00
38464;DHT22;24243;51.956;5.902;2024-01-15T05:25:39;18.00;54.00
38464;DHT22;24243;51.956;5.902;2024-01-15T05:28:05;18.00;54.00
38464;DHT22;24243;51.956;5.902;2024-01-15T05:30:31;18.00;54.00
38464;DHT22;24243;51.956;5.902;2024-01-15T05:32:56;18.00;54.00
38464;DHT22;24243;51.956;5.902;2024-01-15T05:35:23;18.00;54.00
38464;DHT22;24243;51.956;5.902;2024-01-15T05:37:48;18.00;54.00
38464;DHT22;24243;51.956;5.902;2024-01-15T05:40:14;18.00;54.00
38464;DHT22;24243;51.956;5.902;2024-01-15T05:42:40;18.00;54.00
38464;DHT22;24243;51.956;5.902;2024-01-15T05:45:06;18.00;54.00
38464;DHT22;24243;51.956;5.902;2024-01-15T05:47:32;18.00;54.00
38464;DHT22;24243;51.956;5.902;2024-01-15T05:49:58;18.00;54.00
38464;DHT22;24243;51.956;5.902;2024-01-15T05:52:24;18.00;54.00
38464;DHT22;24243;51.956;5.902;2024-01-15T05:54:50;18.00;54.00
38464;DHT22;24243;51.956;5.902;2024-01-15T05:57:15;18.00;54.00
38464;DHT22;24243;51.956;5.902;2024-01-15T05:59:42;18.00;54.00
38464;DHT22;24243;51.956;5.902;2024-01-15T06:02:08;18.00;54.00
38464;DHT22;24243;51.956;5.902;2024-01-15T06:04:33;18.00;54.00
38464;DHT22;24243;51.956;5.902;2024-01-15T06:06:59;17.90;53.90
38464;DHT22;24243;51.956;5.902;2024-01-15T06:09:25;17.90;53.90
38464;DHT22;24243;51.956;5.902;2024-01-15T06:11:50;17.90;53.90
38464;DHT22;24243;51.956;5.902;2024-01-15T06:14:16;17.90;53.90
38464;DHT22;24243;51.956;5.902;2024-01-15T06:16:41;18.00;54.00
38464;DHT22;24243;51.956;5.902;2024-01-15T06:19:07;18.00;54.60
38464;DHT22;24243;51.956;5.902;2024-01-15T06:21:33;17.90;53.90
38464;DHT22;24243;51.956;5.902;2024-01-15T06:23:59;17.90;53.90
38464;DHT22;24243;51.956;5.902;2024-01-15T06:26:24;18.00;54.00
38464;DHT22;24243;51.956;5.902;2024-01-15T06:28:50;17.90;53.90
38464;DHT22;24243;51.956;5.902;2024-01-15T06:31:16;17.90;53.90
38464;DHT22;24243;51.956;5.902;2024-01-15T06:33:41;17.90;53.90
38464;DHT22;24243;51.956;5.902;2024-01-15T06:36:07;17.90;53.90
38464;DHT22;24243;51.956;5.902;2024-01-15T06:38:33;17.90;53.90
38464;DHT22;24243;51.956;5.902;2024-01-15T06:40:58;17.90;53.90
38464;DHT22;24243;51.956;5.902;2024-01-15T06:43:24;17.90;53.90
38464;DHT22;24243;51.956;5.902;2024-01-15T06:45:50;17.90;53.80
38464;DHT22;24243;51.956;5.902;2024-01-15T06:48:15;17.90;53.80
38464;DHT22;24243;51.956;5.902;2024-01-15T06:50:42;17.90;53.90
38464;DHT22;24243;51.956;5.902;2024-01-15T06:53:07;17.90;53.80
38464;DHT22;24243;51.956;5.902;2024-01-15T06:55:33;17.90;53.80
38464;DHT22;24243;51.956;5.902;2024-01-15T06:57:59;17.90;53.80
38464;DHT22;24243;51.956;5.902;2024-01-15T07:00:25;17.90;53.80
38464;DHT22;24243;51.956;5.902;2024-01-15T07:02:50;17.90;53.80
38464;DHT22;24243;51.956;5.902;2024-01-15T07:05:17;17.90;53.80
38464;DHT22;24243;51.956;5.902;2024-01-15T07:07:43;17.90;53.80
38464;DHT22;24243;51.956;5.902;2024-01-15T07:10:08;17.90;53.80
38464;DHT22;24243;51.956;5.902;2024-01-15T07:12:34;17.90;53.80
38464;DHT22;24243;51.956;5.902;2024-01-15T07:15:00;17.90;53.80
38464;DHT22;24243;51.956;5.902;2024-01-15T07:17:27;17.90;53.80
38464;DHT22;24243;51.956;5.902;2024-01-15T07:19:52;17.90;53.80
38464;DHT22;24243;51.956;5.902;2024-01-15T07:22:18;17.80;53.80
38464;DHT22;24243;51.956;5.902;2024-01-15T07:24:43;17.80;53.80
38464;DHT22;24243;51.956;5.902;2024-01-15T07:27:09;17.80;53.80
38464;DHT22;24243;51.956;5.902;2024-01-15T07:29:35;17.90;53.80
38464;DHT22;24243;51.956;5.902;2024-01-15T07:32:04;17.80;53.80
38464;DHT22;24243;51.956;5.902;2024-01-15T07:34:29;17.80;53.80
38464;DHT22;24243;51.956;5.902;2024-01-15T07:36:55;17.80;53.70
38464;DHT22;24243;51.956;5.902;2024-01-15T07:39:21;17.80;53.70
38464;DHT22;24243;51.956;5.902;2024-01-15T07:42:07;17.80;53.70
38464;DHT22;24243;51.956;5.902;2024-01-15T07:44:51;17.80;53.70
38464;DHT22;24243;51.956;5.902;2024-01-15T07:47:35;17.80;53.70
38464;DHT22;24243;51.956;5.902;2024-01-15T07:50:19;17.80;53.70
38464;DHT22;24243;51.956;5.902;2024-01-15T07:53:04;17.80;53.70
38464;DHT22;24243;51.956;5.902;2024-01-15T07:55:48;17.80;53.70
38464;DHT22;24243;51.956;5.902;2024-01-15T07:58:33;17.80;53.70
38464;DHT22;24243;51.956;5.902;2024-01-15T08:01:17;17.70;53.70
38464;DHT22;24243;51.956;5.902;2024-01-15T08:04:01;17.70;53.60
38464;DHT22;24243;51.956;5.902;2024-01-15T08:06:45;17.70;53.60
38464;DHT22;24243;51.956;5.902;2024-01-15T08:09:29;17.80;53.70
38464;DHT22;24243;51.956;5.902;2024-01-15T08:12:14;17.70;53.60
38464;DHT22;24243;51.956;5.902;2024-01-15T08:14:58;17.70;53.60
38464;DHT22;24243;51.956;5.902;2024-01-15T08:17:42;17.70;53.60
38464;DHT22;24243;51.956;5.902;2024-01-15T08:20:27;17.70;53.60
38464;DHT22;24243;51.956;5.902;2024-01-15T08:23:11;17.70;53.60
38464;DHT22;24243;51.956;5.902;2024-01-15T08:25:55;17.70;53.60
38464;DHT22;24243;51.956;5.902;2024-01-15T08:28:40;17.70;53.60
38464;DHT22;24243;51.956;5.902;2024-01-15T08:31:24;17.70;53.60
38464;DHT22;24243;51.956;5.902;2024-01-15T08:34:08;17.70;53.60
38464;DHT22;24243;51.956;5.902;2024-01-15T08:36:52;17.70;53.60
38464;DHT22;24243;51.956;5.902;2024-01-15T08:39:37;17.70;53.60
38464;DHT22;24243;51.956;5.902;2024-01-15T08:42:22;17.70;53.70
38464;DHT22;24243;51.956;5.902;2024-01-15T08:45:06;17.60;53.60
38464;DHT22;24243;51.956;5.902;2024-01-15T08:47:50;17.70;53.70
38464;DHT22;24243;51.956;5.902;2024-01-15T08:50:35;17.60;53.60
38464;DHT22;24243;51.956;5.902;2024-01-15T08:53:19;17.70;53.70
38464;DHT22;24243;51.956;5.902;2024-01-15T08:56:03;17.60;53.60
38464;DHT22;24243;51.956;5.902;2024-01-15T08:58:48;17.70;53.70
38464;DHT22;24243;51.956;5.902;2024-01-15T09:01:32;17.60;53.70
38464;DHT22;24243;51.956;5.902;2024-01-15T09:04:16;17.70;53.70
38464;DHT22;24243;51.956;5.902;2024-01-15T09:07:01;17.70;53.70
38464;DHT22;24243;51.956;5.902;2024-01-15T09:09:46;17.70;53.70
38464;DHT22;24243;51.956;5.902;2024-01-15T09:12:30;17.70;53.70
38464;DHT22;24243;51.956;5.902;2024-01-15T09:15:15;17.60;53.70
38464;DHT22;24243;51.956;5.902;2024-01-15T09:17:59;17.60;53.60
38464;DHT22;24243;51.956;5.902;2024-01-15T09:20:44;17.60;53.70
38464;DHT22;24243;51.956;5.902;2024-01-15T09:23:29;17.60;53.70
38464;DHT22;24243;51.956;5.902;2024-01-15T09:26:13;17.60;53.60
38464;DHT22;24243;51.956;5.902;2024-01-15T09:28:57;17.60;53.70
38464;DHT22;24243;51.956;5.902;2024-01-15T09:31:42;17.60;53.70
38464;DHT22;24243;51.956;5.902;2024-01-15T09:34:26;17.60;53.70
38464;DHT22;24243;51.956;5.902;2024-01-15T09:37:10;17.60;53.60
38464;DHT22;24243;51.956;5.902;2024-01-15T09:39:54;17.60;53.70
38464;DHT22;24243;51.956;5.902;2024-01-15T09:42:39;17.70;53.70
38464;DHT22;24243;51.956;5.902;2024-01-15T09:45:24;17.60;53.60
38464;DHT22;24243;51.956;5.902;2024-01-15T09:48:08;17.60;53.60
38464;DHT22;24243;51.956;5.902;2024-01-15T09:50:52;17.70;53.60
38464;DHT22;24243;51.956;5.902;2024-01-15T09:53:37;17.70;53.60
38464;DHT22;24243;51.956;5.902;2024-01-15T09:56:23;17.70;53.60
38464;DHT22;24243;51.956;5.902;2024-01-15T09:59:08;17.70;53.60
38464;DHT22;24243;51.956;5.902;2024-01-15T10:01:53;17.70;53.60
38464;DHT22;24243;51.956;5.902;2024-01-15T10:04:38;17.70;53.60
38464;DHT22;24243;51.956;5.902;2024-01-15T10:07:22;17.70;53.60
38464;DHT22;24243;51.956;5.902;2024-01-15T10:10:07;17.70;53.60
38464;DHT22;24243;51.956;5.902;2024-01-15T10:12:52;17.70;53.60
38464;DHT22;24243;51.956;5.902;2024-01-15T10:15:40;17.70;53.60
38464;DHT22;24243;51.956;5.902;2024-01-15T10:18:24;17.70;53.60
38464;DHT22;24243;51.956;5.902;2024-01-15T10:21:08;17.80;53.60
38464;DHT22;24243;51.956;5.902;2024-01-15T10:23:53;17.70;53.50
38464;DHT22;24243;51.956;5.902;2024-01-15T10:26:37;17.80;53.60
38464;DHT22;24243;51.956;5.902;2024-01-15T10:29:22;17.80;53.60
38464;DHT22;24243;51.956;5.902;2024-01-15T10:32:08;17.80;53.60
38464;DHT22;24243;51.956;5.902;2024-01-15T10:34:52;17.90;53.60
38464;DHT22;24243;51.956;5.902;2024-01-15T10:37:37;17.90;53.60
38464;DHT22;24243;51.956;5.902;2024-01-15T10:40:21;17.90;53.60
38464;DHT22;24243;51.956;5.902;2024-01-15T10:43:06;17.90;53.60
38464;DHT22;24243;51.956;5.902;2024-01-15T10:45:50;17.90;53.60
38464;DHT22;24243;51.956;5.902;2024-01-15T10:48:35;17.90;53.60
38464;DHT22;24243;51.956;5.902;2024-01-15T10:51:19;17.90;53.60
38464;DHT22;24243;51.956;5.902;2024-01-15T10:54:04;17.90;53.60
38464;DHT22;24243;51.956;5.902;2024-01-15T10:56:52;17.90;53.60
38464;DHT22;24243;51.956;5.902;2024-01-15T10:59:36;17.90;53.60
38464;DHT22;24243;51.956;5.902;2024-01-15T11:02:21;17.90;53.60
38464;DHT22;24243;51.956;5.902;2024-01-15T11:05:05;17.90;53.60
38464;DHT22;24243;51.956;5.902;2024-01-15T11:07:49;17.90;53.60
38464;DHT22;24243;51.956;5.902;2024-01-15T11:16:15;17.90;53.50
38464;DHT22;24243;51.956;5.902;2024-01-15T11:21:44;17.90;53.50
38464;DHT22;24243;51.956;5.902;2024-01-15T11:24:39;17.90;53.50
38464;DHT22;24243;51.956;5.902;2024-01-15T11:27:39;17.90;53.50
38464;DHT22;24243;51.956;5.902;2024-01-15T11:30:25;17.80;53.50
38464;DHT22;24243;51.956;5.902;2024-01-15T11:33:31;17.80;53.50
38464;DHT22;24243;51.956;5.902;2024-01-15T11:36:13;17.90;53.60
38464;DHT22;24243;51.956;5.902;2024-01-15T11:38:57;17.90;53.50
38464;DHT22;24243;51.956;5.902;2024-01-15T11:41:42;17.90;53.50
38464;DHT22;24243;51.956;5.902;2024-01-15T11:44:26;17.80;53.40
38464;DHT22;24243;51.956;5.902;2024-01-15T11:47:11;17.90;53.50
38464;DHT22;24243;51.956;5.902;2024-01-15T11:52:55;17.90;53.50
38464;DHT22;24243;51.956;5.902;2024-01-15T11:55:41;17.90;53.50
38464;DHT22;24243;51.956;5.902;2024-01-15T11:58:28;17.90;53.50
38464;DHT22;24243;51.956;5.902;2024-01-15T12:01:13;17.90;53.50
38464;DHT22;24243;51.956;5.902;2024-01-15T12:03:57;17.90;53.50
38464;DHT22;24243;51.956;5.902;2024-01-15T12:06:42;17.90;53.50
38464;DHT22;24243;51.956;5.902;2024-01-15T12:09:26;18.00;53.60
38464;DHT22;24243;51.956;5.902;2024-01-15T12:12:13;17.90;53.50
38464;DHT22;24243;51.956;5.902;2024-01-15T12:14:59;18.00;53.60
38464;DHT22;24243;51.956;5.902;2024-01-15T12:17:43;18.00;53.50
38464;DHT22;24243;51.956;5.902;2024-01-15T12:20:29;18.00;53.50
38464;DHT22;24243;51.956;5.902;2024-01-15T12:23:13;18.10;53.60
38464;DHT22;24243;51.956;5.902;2024-01-15T12:25:58;18.10;53.60
38464;DHT22;24243;51.956;5.902;2024-01-15T12:28:42;18.10;53.60
38464;DHT22;24243;51.956;5.902;2024-01-15T12:31:27;18.10;53.60
38464;DHT22;24243;51.956;5.902;2024-01-15T12:34:11;18.20;53.70
38464;DHT22;24243;51.956;5.902;2024-01-15T12:36:57;18.10;53.60
38464;DHT22;24243;51.956;5.902;2024-01-15T12:39:44;18.20;53.70
38464;DHT22;24243;51.956;5.902;2024-01-15T12:42:28;18.20;53.70
38464;DHT22;24243;51.956;5.902;2024-01-15T12:45:13;18.20;53.70
38464;DHT22;24243;51.956;5.902;2024-01-15T12:47:57;18.20;53.70
38464;DHT22;24243;51.956;5.902;2024-01-15T12:50:42;18.20;53.60
38464;DHT22;24243;51.956;5.902;2024-01-15T12:53:27;18.20;53.70
38464;DHT22;24243;51.956;5.902;2024-01-15T12:56:11;18.20;53.70
38464;DHT22;24243;51.956;5.902;2024-01-15T12:58:55;18.20;53.70
38464;DHT22;24243;51.956;5.902;2024-01-15T13:01:40;18.20;53.70
38464;DHT22;24243;51.956;5.902;2024-01-15T13:04:25;18.10;53.60
38464;DHT22;24243;51.956;5.902;2024-01-15T13:07:09;18.20;53.70
38464;DHT22;24243;51.956;5.902;2024-01-15T13:09:54;18.20;53.70
38464;DHT22;24243;51.956;5.902;2024-01-15T13:12:38;18.20;53.70
38464;DHT22;24243;51.956;5.902;2024-01-15T13:15:22;18.20;53.70
38464;DHT22;24243;51.956;5.902;2024-01-15T13:18:07;18.20;53.70
38464;DHT22;24243;51.956;5.902;2024-01-15T13:20:51;18.20;53.70
38464;DHT22;24243;51.956;5.902;2024-01-15T13:23:35;18.20;53.60
38464;DHT22;24243;51.956;5.902;2024-01-15T13:26:21;18.20;53.60
38464;DHT22;24243;51.956;5.902;2024-01-15T13:29:05;18.20;53.60
38464;DHT22;24243;51.956;5.902;2024-01-15T13:31:49;18.20;53.60
38464;DHT22;24243;51.956;5.902;2024-01-15T13:34:33;18.10;53.60
38464;DHT22;24243;51.956;5.902;2024-01-15T13:37:17;18.10;53.60
38464;DHT22;24243;51.956;5.902;2024-01-15T13:40:02;18.10;53.60
38464;DHT22;24243;51.956;5.902;2024-01-15T13:42:47;18.10;53.60
38464;DHT22;24243;51.956;5.902;2024-01-15T13:45:32;18.10;53.60
38464;DHT22;24243;51.956;5.902;2024-01-15T13:48:18;18.10;53.60
38464;DHT22;24243;51.956;5.902;2024-01-15T13:51:02;18.10;53.60
38464;DHT22;24243;51.956;5.902;2024-01-15T13:53:46;18.10;53.70
38464;DHT22;24243;51.956;5.902;2024-01-15T13:56:31;18.10;53.70
38464;DHT22;24243;51.956;5.902;2024-01-15T13:59:19;18.10;53.70
38464;DHT22;24243;51.956;5.902;2024-01-15T14:02:03;18.10;53.70
38464;DHT22;24243;51.956;5.902;2024-01-15T14:04:48;18.10;53.80
38464;DHT22;24243;51.956;5.902;2024-01-15T14:07:33;18.10;53.80
38464;DHT22;24243;51.956;5.902;2024-01-15T14:10:17;18.10;53.90
38464;DHT22;24243;51.956;5.902;2024-01-15T14:13:02;18.20;54.00
38464;DHT22;24243;51.956;5.902;2024-01-15T14:15:46;18.20;54.00
38464;DHT22;24243;51.956;5.902;2024-01-15T14:18:32;18.20;54.10
38464;DHT22;24243;51.956;5.902;2024-01-15T14:21:17;18.20;54.10
38464;DHT22;24243;51.956;5.902;2024-01-15T14:24:01;18.30;54.20
38464;DHT22;24243;51.956;5.902;2024-01-15T14:26:45;18.30;54.20
38464;DHT22;24243;51.956;5.902;2024-01-15T14:29:29;18.30;54.20
38464;DHT22;24243;51.956;5.902;2024-01-15T14:32:13;18.30;54.20
38464;DHT22;24243;51.956;5.902;2024-01-15T14:34:58;18.30;54.30
38464;DHT22;24243;51.956;5.902;2024-01-15T14:37:42;18.30;54.30
38464;DHT22;24243;51.956;5.902;2024-01-15T14:40:26;18.40;54.30
38464;DHT22;24243;51.956;5.902;2024-01-15T14:43:11;18.40;54.30
38464;DHT22;24243;51.956;5.902;2024-01-15T14:45:55;18.40;54.30
38464;DHT22;24243;51.956;5.902;2024-01-15T14:48:39;18.50;54.40
38464;DHT22;24243;51.956;5.902;2024-01-15T14:51:24;18.50;54.40
38464;DHT22;24243;51.956;5.902;2024-01-15T14:54:09;18.50;54.40
38464;DHT22;24243;51.956;5.902;2024-01-15T14:56:53;18.50;54.40
38464;DHT22;24243;51.956;5.902;2024-01-15T14:59:37;18.50;54.40
38464;DHT22;24243;51.956;5.902;2024-01-15T15:02:22;18.50;54.40
38464;DHT22;24243;51.956;5.902;2024-01-15T15:05:08;18.50;54.50
38464;DHT22;24243;51.956;5.902;2024-01-15T15:07:52;18.50;54.40
38464;DHT22;24243;51.956;5.902;2024-01-15T15:10:37;18.60;54.50
38464;DHT22;24243;51.956;5.902;2024-01-15T15:13:21;18.60;54.50
38464;DHT22;24243;51.956;5.902;2024-01-15T15:16:07;18.60;54.50
38464;DHT22;24243;51.956;5.902;2024-01-15T15:18:51;18.60;54.50
38464;DHT22;24243;51.956;5.902;2024-01-15T15:21:35;18.60;54.50
38464;DHT22;24243;51.956;5.902;2024-01-15T15:24:19;18.60;54.50
38464;DHT22;24243;51.956;5.902;2024-01-15T15:27:04;18.60;54.50
38464;DHT22;24243;51.956;5.902;2024-01-15T15:29:49;18.60;54.50
38464;DHT22;24243;51.956;5.902;2024-01-15T15:32:34;18.70;54.60
38464;DHT22;24243;51.956;5.902;2024-01-15T15:35:18;18.70;54.50
38464;DHT22;24243;51.956;5.902;2024-01-15T15:38:03;18.70;54.50
38464;DHT22;24243;51.956;5.902;2024-01-15T15:40:47;18.70;54.50
38464;DHT22;24243;51.956;5.902;2024-01-15T15:43:31;18.70;54.50
38464;DHT22;24243;51.956;5.902;2024-01-15T15:46:15;18.80;54.60
38464;DHT22;24243;51.956;5.902;2024-01-15T15:49:00;18.80;54.60
38464;DHT22;24243;51.956;5.902;2024-01-15T15:51:45;18.80;54.50
38464;DHT22;24243;51.956;5.902;2024-01-15T15:54:29;18.80;54.60
38464;DHT22;24243;51.956;5.902;2024-01-15T15:57:13;18.80;54.50
38464;DHT22;24243;51.956;5.902;2024-01-15T15:59:58;18.80;54.50
38464;DHT22;24243;51.956;5.902;2024-01-15T16:02:42;18.80;54.50
38464;DHT22;24243;51.956;5.902;2024-01-15T16:05:26;18.80;54.50
38464;DHT22;24243;51.956;5.902;2024-01-15T16:08:10;18.90;54.60
38464;DHT22;24243;51.956;5.902;2024-01-15T16:10:55;18.80;54.50
38464;DHT22;24243;51.956;5.902;2024-01-15T16:13:39;18.90;54.60
38464;DHT22;24243;51.956;5.902;2024-01-15T16:16:23;18.80;54.60
38464;DHT22;24243;51.956;5.902;2024-01-15T16:19:07;18.90;54.60
38464;DHT22;24243;51.956;5.902;2024-01-15T16:21:52;18.90;54.60
38464;DHT22;24243;51.956;5.902;2024-01-15T16:24:38;18.80;54.60
38464;DHT22;24243;51.956;5.902;2024-01-15T16:27:23;18.90;54.60
38464;DHT22;24243;51.956;5.902;2024-01-15T16:30:07;18.90;54.60
38464;DHT22;24243;51.956;5.902;2024-01-15T16:32:52;18.90;54.60